createdAt,value
2022-09-15T00:01:30.904Z,2.43
2022-09-15T00:03:59.530Z,2.33
2022-09-15T00:06:27.807Z,2.60
2022-09-15T00:08:56.462Z,2.40
2022-09-15T00:11:27.104Z,2.43
2022-09-15T00:13:58.807Z,2.00
2022-09-15T00:16:29.178Z,2.47
2022-09-15T00:18:57.858Z,2.00
2022-09-15T00:21:29.675Z,2.30
2022-09-15T00:23:59.313Z,2.20
2022-09-15T00:26:29.891Z,1.90
2022-09-15T00:29:01.431Z,2.07
2022-09-15T00:31:31.527Z,2.53
2022-09-15T00:34:03.486Z,2.10
2022-09-15T00:36:32.193Z,2.30
2022-09-15T00:39:00.742Z,2.07
2022-09-15T00:41:29.263Z,2.23
2022-09-15T00:44:01.230Z,2.07
2022-09-15T00:46:33.708Z,2.10
2022-09-15T00:49:07.688Z,1.90
2022-09-15T00:51:50.195Z,1.90
2022-09-15T00:54:25.126Z,1.90
2022-09-15T00:56:56.966Z,1.60
2022-09-15T00:59:30.545Z,2.20
2022-09-15T01:02:05.491Z,1.80
2022-09-15T01:04:33.778Z,1.87
2022-09-15T01:07:06.341Z,1.93
2022-09-15T01:09:39.730Z,2.03
2022-09-15T01:12:08.695Z,2.03
2022-09-15T01:14:38.883Z,2.43
2022-09-15T01:17:15.993Z,1.90
2022-09-15T01:20:24.976Z,1.77
2022-09-15T01:23:22.239Z,1.67
2022-09-15T01:26:25.339Z,1.73
2022-09-15T01:29:28.022Z,1.80
2022-09-15T01:32:20.267Z,1.63
2022-09-15T01:34:58.046Z,1.90
2022-09-15T01:37:33.871Z,2.10
2022-09-15T01:40:03.443Z,1.77
2022-09-15T01:42:32.878Z,1.40
2022-09-15T01:45:08.506Z,1.67
2022-09-15T01:47:37.824Z,1.80
2022-09-15T01:50:11.606Z,1.77
2022-09-15T01:52:45.692Z,1.73
2022-09-15T01:55:22.470Z,1.70
2022-09-15T01:57:50.729Z,1.80
2022-09-15T02:00:20.690Z,2.00
2022-09-15T02:02:55.655Z,1.70
2022-09-15T02:05:30.335Z,1.93
2022-09-15T02:08:05.386Z,1.70
2022-09-15T02:10:42.180Z,1.80
2022-09-15T02:13:17.165Z,1.93
2022-09-15T02:15:51.660Z,1.50
2022-09-15T02:18:34.631Z,1.83
2022-09-15T02:21:12.715Z,2.03
2022-09-15T02:23:44.974Z,1.73
2022-09-15T02:26:19.619Z,1.50
2022-09-15T02:28:50.473Z,1.83
2022-09-15T02:31:24.110Z,1.83
2022-09-15T02:33:57.546Z,1.97
2022-09-15T02:36:28.942Z,1.60
2022-09-15T02:39:03.646Z,1.60
2022-09-15T02:41:32.021Z,1.70
2022-09-15T02:44:00.239Z,1.57
2022-09-15T02:46:30.095Z,1.67
2022-09-15T02:48:58.297Z,1.87
2022-09-15T02:51:26.520Z,1.73
2022-09-15T02:53:54.749Z,1.77
2022-09-15T02:56:23.742Z,1.60
2022-09-15T02:58:52.093Z,1.70
2022-09-15T03:01:20.387Z,1.90
2022-09-15T03:03:50.024Z,1.67
2022-09-15T03:06:18.229Z,1.53
2022-09-15T03:08:51.625Z,1.70
2022-09-15T03:11:23.744Z,1.83
2022-09-15T03:13:55.970Z,1.63
2022-09-15T03:16:25.158Z,1.70
2022-09-15T03:18:56.014Z,1.67
2022-09-15T03:21:24.423Z,1.50
2022-09-15T03:23:52.920Z,1.60
2022-09-15T03:26:21.124Z,1.83
2022-09-15T03:28:49.342Z,1.47
2022-09-15T03:31:17.622Z,1.80
2022-09-15T03:33:45.823Z,2.07
2022-09-15T03:36:15.809Z,1.83
2022-09-15T03:38:44.059Z,1.47
2022-09-15T03:41:13.696Z,1.73
2022-09-15T03:43:42.466Z,1.87
2022-09-15T03:46:13.036Z,1.63
2022-09-15T03:48:41.535Z,1.80
2022-09-15T03:51:11.182Z,1.67
2022-09-15T03:53:42.810Z,1.37
2022-09-15T03:56:14.845Z,1.60
2022-09-15T03:58:43.026Z,1.50
2022-09-15T04:01:12.552Z,1.33
2022-09-15T04:03:46.405Z,1.83
2022-09-15T04:06:17.972Z,1.77
2022-09-15T04:08:47.697Z,1.80
2022-09-15T04:11:16.744Z,1.43
2022-09-15T04:13:45.706Z,1.60
2022-09-15T04:16:19.388Z,1.40
2022-09-15T04:18:47.847Z,1.70
2022-09-15T04:21:20.936Z,1.63
2022-09-15T04:23:50.673Z,1.47
2022-09-15T04:26:23.653Z,1.77
2022-09-15T04:28:51.880Z,1.80
2022-09-15T04:31:21.314Z,1.70
2022-09-15T04:33:49.775Z,1.80
2022-09-15T04:36:21.082Z,1.70
2022-09-15T04:38:51.759Z,1.90
2022-09-15T04:41:21.019Z,1.80
2022-09-15T04:43:49.426Z,1.60
2022-09-15T04:46:19.230Z,1.53
2022-09-15T04:48:48.856Z,1.73
2022-09-15T04:51:20.247Z,1.37
2022-09-15T04:53:51.691Z,1.53
2022-09-15T04:56:22.708Z,1.70
2022-09-15T04:58:53.724Z,1.37
2022-09-15T05:01:25.359Z,1.53
2022-09-15T05:03:53.908Z,1.90
2022-09-15T05:06:24.501Z,1.67
2022-09-15T05:08:57.002Z,1.60
2022-09-15T05:11:26.220Z,1.87
2022-09-15T05:13:54.685Z,1.73
2022-09-15T05:16:25.111Z,1.77
2022-09-15T05:18:55.960Z,1.80
2022-09-15T05:21:25.715Z,1.77
2022-09-15T05:23:55.962Z,1.80
2022-09-15T05:26:27.466Z,1.37
2022-09-15T05:28:56.250Z,1.50
2022-09-15T05:31:27.101Z,1.50
2022-09-15T05:33:56.136Z,1.47
2022-09-15T05:36:25.977Z,1.70
2022-09-15T05:38:57.364Z,1.47
2022-09-15T05:41:27.730Z,1.60
2022-09-15T05:43:58.052Z,1.07
2022-09-15T05:46:27.361Z,1.60
2022-09-15T05:48:58.179Z,1.80
2022-09-15T05:51:26.747Z,1.40
2022-09-15T05:53:56.334Z,1.60
2022-09-15T05:56:25.192Z,1.37
2022-09-15T05:58:53.570Z,1.50
2022-09-15T06:01:25.293Z,1.67
2022-09-15T06:03:54.631Z,1.67
2022-09-15T06:06:24.141Z,1.23
2022-09-15T06:08:58.633Z,1.40
2022-09-15T06:11:29.569Z,1.27
2022-09-15T06:14:00.374Z,1.50
2022-09-15T06:16:29.069Z,1.70
2022-09-15T06:18:58.350Z,1.10
2022-09-15T06:21:28.953Z,1.30
2022-09-15T06:24:00.567Z,1.10
2022-09-15T06:26:29.833Z,1.23
2022-09-15T06:29:00.476Z,1.30
2022-09-15T06:31:31.449Z,1.60
2022-09-15T06:34:00.583Z,1.40
2022-09-15T06:36:31.149Z,1.20
2022-09-15T06:39:01.149Z,1.30
2022-09-15T06:41:47.096Z,1.37
2022-09-15T06:44:18.745Z,1.40
2022-09-15T06:46:47.045Z,1.30
2022-09-15T06:49:15.729Z,1.07
2022-09-15T06:51:43.948Z,0.97
2022-09-15T06:54:14.603Z,1.20
2022-09-15T06:56:43.293Z,2.03
2022-09-15T06:59:14.697Z,1.00
2022-09-15T07:01:43.633Z,1.20
2022-09-15T07:04:12.172Z,0.80
2022-09-15T07:06:41.086Z,1.20
2022-09-15T07:09:09.623Z,1.30
2022-09-15T07:11:39.544Z,1.00
2022-09-15T07:14:07.826Z,1.17
2022-09-15T07:16:36.338Z,1.17
2022-09-15T07:19:05.841Z,0.97
2022-09-15T07:21:35.493Z,1.00
2022-09-15T07:24:07.199Z,0.97
2022-09-15T07:26:36.178Z,1.10
2022-09-15T07:29:07.573Z,1.00
2022-09-15T07:31:39.014Z,1.13
2022-09-15T07:34:08.125Z,1.07
2022-09-15T07:36:36.707Z,1.00
2022-09-15T07:39:06.590Z,1.07
2022-09-15T07:41:35.771Z,0.80
2022-09-15T07:44:08.061Z,0.90
2022-09-15T07:46:36.450Z,0.90
2022-09-15T07:49:06.501Z,0.80
2022-09-15T07:51:34.848Z,1.03
2022-09-15T07:54:03.112Z,0.90
2022-09-15T07:56:31.321Z,1.00
2022-09-15T07:58:59.512Z,1.30
2022-09-15T08:01:29.306Z,0.87
2022-09-15T08:03:57.626Z,1.13
2022-09-15T08:06:28.775Z,0.90
2022-09-15T08:09:00.766Z,0.97
2022-09-15T08:11:30.013Z,0.93
2022-09-15T08:14:02.129Z,1.00
2022-09-15T08:16:32.080Z,0.93
2022-09-15T08:19:00.450Z,0.97
2022-09-15T08:21:29.191Z,0.87
2022-09-15T08:23:59.701Z,0.83
2022-09-15T08:26:29.591Z,1.13
2022-09-15T08:28:57.891Z,1.20
2022-09-15T08:31:26.362Z,0.70
2022-09-15T08:33:57.057Z,0.90
2022-09-15T08:36:28.054Z,0.97
2022-09-15T08:38:56.788Z,1.00
2022-09-15T08:41:31.108Z,1.13
2022-09-15T08:44:08.427Z,0.80
2022-09-15T08:46:41.998Z,1.00
2022-09-15T08:49:35.595Z,0.80
2022-09-15T08:52:16.697Z,0.80
2022-09-15T08:54:44.925Z,1.10
2022-09-15T08:57:20.862Z,1.13
2022-09-15T08:59:49.121Z,1.30
2022-09-15T09:02:56.120Z,1.10
2022-09-15T09:05:45.829Z,1.13
2022-09-15T09:08:46.722Z,1.10
2022-09-15T09:11:24.527Z,0.90
2022-09-15T09:14:03.605Z,0.97
2022-09-15T09:16:51.455Z,1.00
2022-09-15T09:19:52.780Z,1.13
2022-09-15T09:22:27.674Z,1.00
2022-09-15T09:24:59.461Z,0.90
2022-09-15T09:27:33.772Z,1.00
2022-09-15T09:30:08.324Z,0.70
2022-09-15T09:32:45.462Z,1.50
2022-09-15T09:35:25.265Z,1.30
2022-09-15T09:37:55.238Z,1.40
2022-09-15T09:40:24.401Z,0.90
2022-09-15T09:42:52.650Z,1.00
2022-09-15T09:45:21.090Z,1.00
2022-09-15T09:47:49.285Z,0.83
2022-09-15T09:50:37.074Z,1.00
2022-09-15T09:53:26.742Z,0.90
2022-09-15T09:55:56.308Z,0.80
2022-09-15T09:58:26.482Z,1.10
2022-09-15T10:00:54.990Z,1.10
2022-09-15T10:03:29.408Z,0.83
2022-09-15T10:06:07.372Z,0.90
2022-09-15T10:08:38.304Z,1.03
2022-09-15T10:11:10.386Z,1.10
2022-09-15T10:13:53.630Z,0.80
2022-09-15T10:16:23.703Z,1.10
2022-09-15T10:18:54.586Z,0.90
2022-09-15T10:21:25.514Z,1.07
2022-09-15T10:23:55.081Z,0.90
2022-09-15T10:26:35.717Z,0.70
2022-09-15T10:29:15.966Z,0.80
2022-09-15T10:31:46.135Z,0.80
2022-09-15T10:34:31.449Z,0.90
2022-09-15T10:37:21.539Z,0.83
2022-09-15T10:39:55.221Z,0.80
2022-09-15T10:42:50.536Z,1.00
2022-09-15T10:45:27.264Z,0.90
2022-09-15T10:48:41.873Z,0.83
2022-09-15T10:51:27.560Z,0.87
2022-09-15T10:54:25.151Z,0.93
2022-09-15T10:57:00.142Z,0.90
2022-09-15T10:59:43.670Z,0.93
2022-09-15T11:03:14.647Z,0.90
2022-09-15T11:05:58.438Z,0.70
2022-09-15T11:08:53.377Z,0.70
2022-09-15T11:11:31.728Z,0.90
2022-09-15T11:14:20.475Z,0.90
2022-09-15T11:17:09.726Z,1.00
2022-09-15T11:20:05.701Z,2.27
2022-09-15T11:22:39.814Z,2.87
2022-09-15T11:25:18.328Z,2.97
2022-09-15T11:27:50.596Z,3.30
2022-09-15T11:30:22.690Z,2.93
2022-09-15T11:32:58.195Z,4.90
2022-09-15T11:35:46.399Z,2.90
2022-09-15T11:38:25.327Z,2.20
2022-09-15T11:41:02.657Z,1.90
2022-09-15T11:43:38.060Z,1.03
2022-09-15T11:46:14.966Z,0.90
2022-09-15T11:48:48.723Z,1.03
2022-09-15T11:51:21.550Z,0.77
2022-09-15T11:53:55.870Z,0.90
2022-09-15T11:56:30.563Z,0.50
2022-09-15T11:59:13.098Z,0.80
2022-09-15T12:01:51.798Z,0.80
2022-09-15T12:04:28.182Z,0.70
2022-09-15T12:07:01.747Z,0.80
2022-09-15T12:09:30.408Z,0.70
2022-09-15T12:12:02.904Z,1.00
2022-09-15T12:14:36.948Z,0.80
2022-09-15T12:17:09.754Z,0.70
2022-09-15T12:19:50.802Z,0.60
2022-09-15T12:22:25.722Z,0.40
2022-09-15T12:25:02.156Z,0.67
2022-09-15T12:27:30.822Z,0.50
2022-09-15T12:30:01.156Z,0.60
2022-09-15T12:32:33.271Z,0.80
2022-09-15T12:35:28.320Z,0.80
2022-09-15T12:37:59.141Z,0.80
2022-09-15T12:40:37.735Z,0.80
2022-09-15T12:43:19.810Z,0.70
2022-09-15T12:45:57.307Z,0.80
2022-09-15T12:48:30.217Z,0.60
2022-09-15T12:51:04.149Z,0.60
2022-09-15T12:56:11.971Z,0.50
2022-09-15T12:58:42.936Z,0.40
2022-09-15T13:01:47.862Z,0.40
2022-09-15T13:04:52.987Z,0.60
2022-09-15T13:07:51.307Z,0.60
2022-09-15T13:10:37.015Z,0.90
2022-09-15T13:13:28.808Z,0.70
2022-09-15T13:16:04.166Z,0.57
2022-09-15T13:18:35.127Z,0.50
2022-09-15T13:21:09.126Z,0.60
2022-09-15T13:23:42.465Z,1.00
2022-09-15T13:26:17.173Z,0.70
2022-09-15T13:28:50.460Z,0.60
2022-09-15T13:31:35.459Z,0.50
2022-09-15T13:38:12.654Z,0.90
2022-09-15T13:41:19.815Z,0.60
2022-09-15T13:44:25.120Z,0.63
2022-09-15T13:47:08.954Z,0.60
2022-09-15T13:49:49.978Z,0.70
2022-09-15T13:52:39.858Z,0.70
2022-09-15T13:55:20.967Z,0.70
2022-09-15T14:00:55.638Z,0.57
2022-09-15T14:03:29.935Z,0.60
2022-09-15T14:05:58.277Z,0.80
2022-09-15T14:08:32.618Z,0.77
2022-09-15T14:11:08.257Z,0.63
2022-09-15T14:13:39.690Z,0.67
2022-09-15T14:16:23.596Z,0.60
2022-09-15T14:18:53.068Z,0.67
2022-09-15T14:21:23.950Z,0.90
2022-09-15T14:23:55.874Z,0.80
2022-09-15T14:26:27.940Z,0.70
2022-09-15T14:28:59.765Z,0.70
2022-09-15T14:31:31.099Z,0.90
2022-09-15T14:34:00.028Z,0.70
2022-09-15T14:36:31.336Z,1.00
2022-09-15T14:39:19.785Z,0.67
2022-09-15T14:41:49.102Z,0.73
2022-09-15T14:47:22.526Z,0.70
2022-09-15T14:49:50.933Z,0.80
2022-09-15T14:52:30.031Z,0.93
2022-09-15T14:55:03.850Z,0.83
2022-09-15T14:57:36.809Z,0.70
2022-09-15T15:00:13.297Z,0.90
2022-09-15T15:02:56.441Z,1.20
2022-09-15T15:05:29.259Z,0.90
2022-09-15T15:07:58.924Z,0.80
2022-09-15T15:10:35.475Z,1.00
2022-09-15T15:13:11.256Z,1.00
2022-09-15T15:15:40.430Z,1.00
2022-09-15T15:18:32.555Z,1.10
2022-09-15T15:21:00.869Z,1.00
2022-09-15T15:23:29.459Z,1.00
2022-09-15T15:26:27.241Z,1.20
2022-09-15T15:28:55.513Z,1.77
2022-09-15T15:31:26.802Z,1.57
2022-09-15T15:33:59.447Z,1.33
2022-09-15T15:36:29.647Z,1.30
2022-09-15T15:39:00.369Z,1.70
2022-09-15T15:41:32.722Z,1.97
2022-09-15T15:44:07.905Z,1.80
2022-09-15T15:46:54.304Z,1.50
2022-09-15T15:49:27.384Z,0.90
2022-09-15T15:51:56.346Z,0.83
2022-09-15T15:54:25.081Z,0.97
2022-09-15T15:56:55.588Z,1.10
2022-09-15T15:59:23.854Z,1.10
2022-09-15T16:01:53.904Z,1.30
2022-09-15T16:04:22.166Z,1.40
2022-09-15T16:06:50.845Z,1.30
2022-09-15T16:09:20.718Z,0.97
2022-09-15T16:11:49.081Z,0.80
2022-09-15T16:14:18.682Z,0.80
2022-09-15T16:16:46.917Z,0.77
2022-09-15T16:19:15.116Z,0.40
2022-09-15T16:21:43.861Z,0.70
2022-09-15T16:24:15.473Z,0.50
2022-09-15T16:26:44.419Z,0.50
2022-09-15T16:29:13.074Z,0.60
2022-09-15T16:31:43.629Z,0.53
2022-09-15T16:34:17.977Z,0.70
2022-09-15T16:36:46.556Z,0.77
2022-09-15T16:39:14.779Z,0.93
2022-09-15T16:41:43.157Z,0.87
2022-09-15T16:44:19.284Z,0.80
2022-09-15T16:46:48.956Z,0.97
2022-09-15T16:49:17.452Z,0.80
2022-09-15T16:51:45.804Z,0.90
2022-09-15T16:54:17.803Z,1.20
2022-09-15T16:56:46.578Z,1.10
2022-09-15T16:59:15.045Z,1.80
2022-09-15T17:01:43.317Z,1.63
2022-09-15T17:04:16.801Z,1.00
2022-09-15T17:06:45.072Z,1.03
2022-09-15T17:09:13.350Z,1.13
2022-09-15T17:11:41.555Z,1.17
2022-09-15T17:14:14.262Z,1.07
2022-09-15T17:16:42.505Z,0.93
2022-09-15T17:19:12.089Z,1.10
2022-09-15T17:21:40.281Z,1.20
2022-09-15T17:24:10.704Z,1.20
2022-09-15T17:26:39.136Z,1.50
2022-09-15T17:29:07.501Z,1.10
2022-09-15T17:31:35.722Z,1.47
2022-09-15T17:34:04.023Z,1.10
2022-09-15T17:36:36.185Z,1.43
2022-09-15T17:39:04.690Z,2.27
2022-09-15T17:41:33.654Z,2.33
2022-09-15T17:44:02.189Z,1.70
2022-09-15T17:46:30.486Z,2.40
2022-09-15T17:48:58.807Z,1.93
2022-09-15T17:51:27.066Z,1.90
2022-09-15T17:53:56.619Z,1.80
2022-09-15T17:56:24.936Z,1.67
2022-09-15T17:58:53.150Z,1.40
2022-09-15T18:01:21.487Z,1.33
2022-09-15T18:03:50.052Z,1.10
2022-09-15T18:06:18.307Z,1.47
2022-09-15T18:08:46.628Z,1.70
2022-09-15T18:11:16.615Z,1.53
2022-09-15T18:13:44.896Z,1.53
2022-09-15T18:16:15.158Z,1.50
2022-09-15T18:18:43.682Z,1.30
2022-09-15T18:21:24.536Z,1.30
2022-09-15T18:23:52.873Z,1.67
2022-09-15T18:26:26.335Z,1.60
2022-09-15T18:28:56.753Z,1.77
2022-09-15T18:31:25.097Z,2.13
2022-09-15T18:33:53.535Z,2.10
2022-09-15T18:36:21.880Z,1.83
2022-09-15T18:38:50.166Z,2.00
2022-09-15T18:41:18.576Z,2.00
2022-09-15T18:43:49.161Z,2.13
2022-09-15T18:46:18.261Z,2.00
2022-09-15T18:48:46.612Z,1.97
2022-09-15T18:51:23.655Z,2.47
2022-09-15T18:53:54.410Z,2.00
2022-09-15T18:56:23.094Z,2.63
2022-09-15T18:58:55.631Z,2.03
2022-09-15T19:01:24.336Z,2.23
2022-09-15T19:03:52.670Z,2.23
2022-09-15T19:06:20.944Z,2.40
2022-09-15T19:08:49.419Z,2.50
2022-09-15T19:11:17.767Z,3.00
2022-09-15T19:13:46.073Z,2.60
2022-09-15T19:16:15.964Z,2.47
2022-09-15T19:18:46.236Z,3.03
2022-09-15T19:21:14.515Z,2.50
2022-09-15T19:23:42.762Z,2.83
2022-09-15T19:26:13.701Z,3.50
2022-09-15T19:28:42.112Z,2.90
2022-09-15T19:31:10.923Z,2.80
2022-09-15T19:33:40.899Z,3.03
2022-09-15T19:36:27.540Z,2.77
2022-09-15T19:38:57.061Z,2.63
2022-09-15T19:41:25.556Z,2.90
2022-09-15T19:43:54.543Z,3.17
2022-09-15T19:46:25.073Z,2.80
2022-09-15T19:48:55.513Z,2.83
2022-09-15T19:51:24.974Z,3.33
2022-09-15T19:53:56.431Z,3.20
2022-09-15T19:56:27.189Z,3.20
2022-09-15T19:58:57.314Z,3.10
2022-09-15T20:01:27.830Z,3.10
2022-09-15T20:03:58.518Z,3.77
2022-09-15T20:06:31.704Z,2.80
2022-09-15T20:09:01.003Z,2.90
2022-09-15T20:11:31.183Z,3.27
2022-09-15T20:13:59.889Z,3.60
2022-09-15T20:16:29.230Z,3.00
2022-09-15T20:18:59.003Z,3.40
2022-09-15T20:21:50.453Z,3.50
2022-09-15T20:24:21.573Z,3.10
2022-09-15T20:26:50.720Z,3.53
2022-09-15T20:29:19.763Z,3.33
2022-09-15T20:31:48.734Z,3.50
2022-09-15T20:34:19.057Z,3.00
2022-09-15T20:36:47.440Z,3.30
2022-09-15T20:39:19.430Z,3.27
2022-09-15T20:41:47.722Z,3.40
2022-09-15T20:44:16.173Z,3.50
2022-09-15T20:46:44.783Z,3.67
2022-09-15T20:49:13.364Z,3.63
2022-09-15T20:51:42.973Z,3.53
2022-09-15T20:54:11.675Z,3.83
2022-09-15T20:56:39.982Z,3.50
2022-09-15T20:59:10.376Z,3.40
2022-09-15T21:01:40.271Z,3.70
2022-09-15T21:04:10.302Z,3.07
2022-09-15T21:06:39.410Z,3.73
2022-09-15T21:09:09.289Z,3.60
2022-09-15T21:11:39.089Z,3.30
2022-09-15T21:14:07.581Z,3.20
2022-09-15T21:16:35.902Z,3.90
2022-09-15T21:19:05.164Z,3.63
2022-09-15T21:21:34.597Z,3.90
2022-09-15T21:24:06.081Z,3.47
2022-09-15T21:27:00.020Z,3.87
2022-09-15T21:29:29.961Z,3.73
2022-09-15T21:31:58.297Z,3.80
2022-09-15T21:34:26.935Z,4.03
2022-09-15T21:36:55.192Z,3.87
2022-09-15T21:39:23.439Z,4.43
2022-09-15T21:41:53.104Z,3.90
2022-09-15T21:44:21.374Z,4.07
2022-09-15T21:46:49.581Z,4.30
2022-09-15T21:49:18.303Z,4.57
2022-09-15T21:51:46.549Z,4.37
2022-09-15T21:54:14.847Z,4.20
2022-09-15T21:56:43.294Z,5.40
2022-09-15T21:59:13.349Z,4.40
2022-09-15T22:01:42.340Z,4.30
2022-09-15T22:04:11.210Z,5.57
2022-09-15T22:06:41.429Z,5.00
2022-09-15T22:09:13.862Z,5.00
2022-09-15T22:11:42.786Z,4.87
2022-09-15T22:14:13.216Z,4.97
2022-09-15T22:16:43.264Z,4.87
2022-09-15T22:19:13.319Z,5.37
2022-09-15T22:21:42.615Z,5.33
2022-09-15T22:24:13.467Z,5.30
2022-09-15T22:26:43.447Z,5.00
2022-09-15T22:29:13.276Z,5.30
2022-09-15T22:31:42.162Z,5.00
2022-09-15T22:34:10.630Z,5.50
2022-09-15T22:36:38.930Z,5.13
2022-09-15T22:39:07.729Z,4.50
2022-09-15T22:41:38.073Z,5.40
2022-09-15T22:44:08.065Z,5.23
2022-09-15T22:46:37.669Z,5.20
2022-09-15T22:49:05.883Z,5.03
2022-09-15T22:51:34.123Z,5.03
2022-09-15T22:54:02.946Z,4.70
2022-09-15T22:56:31.424Z,4.60
2022-09-15T22:59:00.017Z,4.57
2022-09-15T23:01:30.621Z,4.80
2022-09-15T23:04:02.596Z,4.97
2022-09-15T23:06:33.707Z,5.20
2022-09-15T23:09:06.344Z,4.63
2022-09-15T23:11:35.623Z,4.50
2022-09-15T23:14:04.655Z,5.03
2022-09-15T23:16:33.124Z,5.67
2022-09-15T23:19:02.785Z,5.33
2022-09-15T23:21:31.076Z,5.47
2022-09-15T23:23:59.439Z,4.87
2022-09-15T23:26:28.650Z,4.73
2022-09-15T23:28:56.921Z,5.07
2022-09-15T23:31:25.185Z,5.17
2022-09-15T23:33:53.482Z,4.93
2022-09-15T23:36:23.060Z,5.03
2022-09-15T23:38:51.372Z,5.07
2022-09-15T23:41:20.243Z,4.23
2022-09-15T23:43:48.531Z,4.53
2022-09-15T23:46:17.367Z,4.70
2022-09-15T23:48:46.335Z,4.97
2022-09-15T23:51:14.601Z,4.83
2022-09-15T23:53:44.332Z,5.00
2022-09-15T23:56:12.617Z,4.73
2022-09-15T23:58:41.026Z,4.70
